Time;durP1;ratioP1;P1;durP2;ratioP2;P2;SDS_P1;SDS_P2;PMS_P1;PMS_P2;Temp;Humidity;BMP_temperature;BMP_pressure;BME280_temperature;BME280_humidity;BME280_pressure;Samples;Min_cycle;Max_cycle;Signal;HPM_P1;HPM_P2
2021/09/21 00:00:29;;;;;;;2.55;2.35;;;14.80;72.50;;;;;;5011210;28;20033;-63
2021/09/21 00:02:54;;;;;;;2.42;1.85;;;14.90;72.60;;;;;;4994320;28;20374;-63
2021/09/21 00:05:20;;;;;;;2.28;2.08;;;14.80;72.50;;;;;;4998206;28;20497;-63
2021/09/21 00:07:46;;;;;;;2.78;2.22;;;14.90;72.60;;;;;;4996327;28;20026;-63
2021/09/21 00:10:12;;;;;;;2.00;1.80;;;14.90;72.70;;;;;;5013374;28;20156;-63
2021/09/21 00:12:39;;;;;;;2.05;1.90;;;14.90;72.70;;;;;;5012467;28;20160;-63
2021/09/21 00:15:09;;;;;;;1.80;1.65;;;14.90;72.70;;;;;;5012891;28;20060;-63
2021/09/21 00:17:35;;;;;;;2.50;2.30;;;14.90;72.70;;;;;;5013009;28;20362;-63
2021/09/21 00:20:00;;;;;;;2.75;2.53;;;14.90;72.80;;;;;;5012488;28;20026;-63
2021/09/21 00:22:26;;;;;;;2.45;2.25;;;14.90;72.70;;;;;;5013024;28;20441;-63
2021/09/21 00:24:52;;;;;;;3.53;2.30;;;14.90;72.70;;;;;;5004053;28;20027;-63
2021/09/21 00:27:18;;;;;;;2.80;2.60;;;14.80;72.80;;;;;;4993628;28;20034;-63
2021/09/21 00:29:44;;;;;;;2.40;2.15;;;14.80;72.90;;;;;;5012235;28;20473;-63
2021/09/21 00:32:15;;;;;;;2.15;1.95;;;14.80;73.00;;;;;;5011272;28;20053;-63
2021/09/21 00:34:43;;;;;;;2.15;1.95;;;14.90;73.10;;;;;;5010752;28;20038;-63
2021/09/21 00:37:11;;;;;;;2.20;2.03;;;14.90;73.10;;;;;;4998101;28;20043;-63
2021/09/21 00:39:38;;;;;;;2.45;2.20;;;14.80;73.10;;;;;;5010821;28;20073;-63
2021/09/21 00:42:05;;;;;;;2.33;2.13;;;14.90;73.00;;;;;;5012946;28;20377;-63
2021/09/21 00:44:31;;;;;;;2.30;2.10;;;14.80;73.00;;;;;;5012012;28;20026;-63
2021/09/21 00:46:57;;;;;;;2.00;1.90;;;14.90;73.00;;;;;;5012174;28;20061;-63
2021/09/21 00:49:22;;;;;;;3.03;2.10;;;14.80;72.70;;;;;;5011259;28;20068;-63
2021/09/21 00:51:48;;;;;;;2.65;1.98;;;14.80;72.80;;;;;;5012806;28;20026;-63
2021/09/21 00:54:14;;;;;;;1.83;1.70;;;14.80;72.80;;;;;;5011981;28;20109;-63
2021/09/21 00:56:41;;;;;;;1.70;1.60;;;14.70;72.70;;;;;;5012799;28;20029;-63
2021/09/21 00:59:07;;;;;;;2.03;1.55;;;14.70;72.70;;;;;;5010185;28;20034;-63
2021/09/21 01:01:33;;;;;;;1.60;1.50;;;14.70;72.80;;;;;;4993020;28;20030;-63
2021/09/21 01:04:00;;;;;;;1.45;1.35;;;14.60;73.30;;;;;;4998427;28;20018;-64
2021/09/21 01:06:26;;;;;;;2.38;1.25;;;14.60;72.60;;;;;;4992951;28;20050;-63
2021/09/21 01:08:52;;;;;;;1.20;1.20;;;14.60;72.60;;;;;;5005836;28;20481;-63
2021/09/21 01:11:17;;;;;;;1.42;1.33;;;14.50;72.50;;;;;;5012877;28;20053;-63
2021/09/21 01:13:43;;;;;;;1.00;0.95;;;14.50;72.60;;;;;;5008576;28;20022;-63
2021/09/21 01:16:09;;;;;;;1.25;1.15;;;14.50;72.70;;;;;;5012695;28;20034;-63
2021/09/21 01:18:35;;;;;;;1.20;1.20;;;14.50;72.80;;;;;;5008742;28;20798;-63
2021/09/21 01:21:06;;;;;;;1.45;1.35;;;14.50;72.80;;;;;;5001799;28;20528;-63
2021/09/21 01:23:43;;;;;;;1.33;1.23;;;14.50;72.80;;;;;;5007221;28;20026;-63
2021/09/21 01:26:10;;;;;;;1.15;1.15;;;14.50;72.70;;;;;;5004238;28;20472;-63
2021/09/21 01:28:35;;;;;;;1.25;1.25;;;14.40;72.60;;;;;;5002583;28;20499;-63
2021/09/21 01:31:02;;;;;;;1.88;1.35;;;14.40;72.70;;;;;;4996080;28;20057;-63
2021/09/21 01:33:28;;;;;;;1.25;1.25;;;14.40;72.80;;;;;;5004407;28;20030;-63
2021/09/21 01:35:54;;;;;;;1.38;1.23;;;14.40;72.80;;;;;;4997418;28;20096;-63
2021/09/21 01:38:19;;;;;;;1.10;1.10;;;14.30;72.90;;;;;;5013166;28;20034;-63
2021/09/21 01:40:45;;;;;;;1.10;1.10;;;14.30;72.80;;;;;;5003019;28;20022;-63
2021/09/21 01:43:10;;;;;;;1.65;1.13;;;14.30;72.70;;;;;;5003838;28;20031;-63
2021/09/21 01:45:36;;;;;;;1.25;1.10;;;14.30;72.70;;;;;;4995807;28;20126;-63
2021/09/21 01:48:02;;;;;;;0.98;0.98;;;14.20;72.70;;;;;;4995760;28;20030;-63
2021/09/21 01:50:34;;;;;;;1.17;1.08;;;14.20;72.90;;;;;;4995643;28;20034;-63
2021/09/21 02:00:57;;;;;;;1.08;1.05;;;14.20;72.80;;;;;;5010162;28;20068;-63
2021/09/21 02:03:22;;;;;;;0.80;0.80;;;14.20;73.10;;;;;;5014855;28;20386;-63
2021/09/21 02:05:48;;;;;;;0.88;0.88;;;14.20;73.20;;;;;;5000000;28;20026;-63
2021/09/21 02:08:14;;;;;;;0.70;0.70;;;14.20;73.40;;;;;;5001209;28;20029;-63
2021/09/21 02:10:40;;;;;;;1.08;0.98;;;14.20;73.60;;;;;;5014493;28;20508;-63
2021/09/21 02:13:05;;;;;;;2.40;0.98;;;14.10;73.80;;;;;;5014936;28;20030;-63
2021/09/21 02:15:31;;;;;;;0.80;0.80;;;14.10;74.10;;;;;;5014663;28;20042;-63
2021/09/21 02:18:02;;;;;;;0.82;0.82;;;14.10;74.30;;;;;;5014975;28;20477;-63
2021/09/21 02:20:28;;;;;;;1.17;0.95;;;14.20;74.40;;;;;;5003601;28;20113;-63
2021/09/21 02:22:54;;;;;;;0.90;0.90;;;14.20;74.40;;;;;;4995158;28;20030;-63
2021/09/21 02:25:20;;;;;;;1.23;1.10;;;14.20;74.60;;;;;;4998605;28;20064;-63
2021/09/21 02:27:46;;;;;;;1.08;1.08;;;14.20;74.50;;;;;;5014121;28;20034;-63
2021/09/21 02:30:12;;;;;;;0.90;0.88;;;14.10;74.60;;;;;;5014289;28;20030;-63
2021/09/21 02:32:38;;;;;;;0.80;0.80;;;14.20;74.70;;;;;;5014372;28;20362;-63
2021/09/21 02:35:05;;;;;;;1.20;1.15;;;14.10;74.70;;;;;;5012551;28;20037;-63
2021/09/21 02:37:31;;;;;;;1.20;1.20;;;14.10;74.70;;;;;;5012783;28;20489;-63
2021/09/21 02:39:57;;;;;;;1.00;1.00;;;14.10;74.60;;;;;;5014156;28;20045;-63
2021/09/21 02:42:22;;;;;;;1.35;1.35;;;14.00;74.70;;;;;;5013854;28;20116;-63
2021/09/21 02:44:48;;;;;;;1.90;1.80;;;13.90;74.90;;;;;;5006603;28;20069;-63
2021/09/21 02:47:14;;;;;;;1.65;1.55;;;13.90;75.00;;;;;;4994717;28;20029;-63
2021/09/21 02:49:39;;;;;;;1.75;1.65;;;13.90;75.30;;;;;;4994480;28;20036;-63
2021/09/21 02:52:05;;;;;;;1.80;1.70;;;13.80;75.50;;;;;;5002682;28;20038;-63
2021/09/21 02:54:31;;;;;;;1.90;1.80;;;13.70;75.70;;;;;;5012230;28;20088;-63
2021/09/21 02:56:56;;;;;;;2.65;1.98;;;13.70;75.90;;;;;;5013964;28;20076;-63
2021/09/21 02:59:22;;;;;;;2.00;1.90;;;13.70;76.10;;;;;;5013540;28;20014;-63
2021/09/21 03:01:49;;;;;;;1.92;1.83;;;13.70;76.10;;;;;;5006642;28;20026;-63
2021/09/21 03:04:24;;;;;;;2.00;1.90;;;13.70;76.10;;;;;;5009471;28;20037;-63
2021/09/21 03:06:52;;;;;;;2.33;2.10;;;13.70;76.10;;;;;;4995272;28;20026;-63
2021/09/21 03:12:12;;;;;;;2.00;1.90;;;13.60;75.70;;;;;;5014224;28;20032;-63
2021/09/21 03:17:27;;;;;;;2.28;2.08;;;13.50;75.70;;;;;;5013818;28;20029;-63
2021/09/21 03:19:57;;;;;;;2.50;2.30;;;13.50;75.70;;;;;;4998183;28;20109;-63
2021/09/21 03:22:23;;;;;;;2.60;2.40;;;13.40;75.80;;;;;;4994221;28;20049;-63
2021/09/21 03:24:53;;;;;;;2.97;2.67;;;13.40;75.90;;;;;;4993907;28;20102;-63
2021/09/21 03:27:20;;;;;;;3.05;2.72;;;13.40;76.00;;;;;;4994040;28;20029;-63
2021/09/21 03:29:45;;;;;;;3.03;2.78;;;13.30;76.00;;;;;;5002460;28;20113;-63
2021/09/21 03:32:12;;;;;;;2.95;2.65;;;13.30;76.10;;;;;;5012543;28;20065;-63
2021/09/21 03:34:38;;;;;;;3.22;2.92;;;13.20;76.10;;;;;;5012435;28;20061;-63
2021/09/21 03:37:08;;;;;;;2.92;2.60;;;13.10;76.10;;;;;;5012175;28;20033;-63
2021/09/21 03:39:35;;;;;;;3.80;3.03;;;13.10;76.40;;;;;;4995049;28;20046;-63
2021/09/21 03:42:01;;;;;;;3.50;3.20;;;13.10;76.50;;;;;;4993757;28;20108;-63
2021/09/21 03:44:27;;;;;;;3.20;2.90;;;13.10;76.60;;;;;;4993836;28;20054;-63
2021/09/21 03:46:54;;;;;;;3.72;3.33;;;13.00;76.70;;;;;;4993552;28;20026;-63
2021/09/21 03:49:20;;;;;;;3.33;3.03;;;13.00;76.60;;;;;;5011630;28;20064;-63
2021/09/21 03:51:46;;;;;;;3.90;3.53;;;13.00;76.60;;;;;;5007559;28;20027;-63
2021/09/21 03:54:12;;;;;;;3.70;3.33;;;12.90;76.50;;;;;;4993490;28;20049;-63
2021/09/21 03:56:38;;;;;;;4.22;3.72;;;12.90;76.50;;;;;;4993715;28;20022;-63
2021/09/21 03:59:04;;;;;;;3.50;3.10;;;12.90;76.60;;;;;;4993511;28;20031;-63
2021/09/21 04:01:31;;;;;;;4.15;3.33;;;12.90;76.60;;;;;;4993691;28;20018;-63
2021/09/21 04:03:57;;;;;;;4.07;3.67;;;12.90;76.30;;;;;;4993436;28;20022;-63
2021/09/21 04:06:23;;;;;;;6.03;3.33;;;12.80;76.20;;;;;;5007885;28;20034;-63
2021/09/21 04:08:49;;;;;;;4.47;3.75;;;12.80;76.20;;;;;;5002932;28;20030;-63
2021/09/21 04:11:14;;;;;;;5.70;3.85;;;12.70;76.30;;;;;;4993637;28;20034;-63
2021/09/21 04:13:40;;;;;;;4.13;3.72;;;12.60;76.40;;;;;;4993464;28;20054;-63
2021/09/21 04:16:06;;;;;;;3.72;3.30;;;12.60;76.50;;;;;;4993325;28;20101;-63
2021/09/21 04:18:31;;;;;;;4.15;3.75;;;12.60;76.60;;;;;;4993152;28;20441;-63
2021/09/21 04:20:57;;;;;;;3.97;3.55;;;12.60;76.50;;;;;;4993215;28;20022;-63
2021/09/21 04:23:23;;;;;;;4.57;4.10;;;12.60;76.30;;;;;;5004292;28;20030;-63
2021/09/21 04:25:48;;;;;;;4.15;3.75;;;12.50;76.20;;;;;;5012636;28;20026;-63
2021/09/21 04:28:14;;;;;;;4.35;3.47;;;12.40;76.40;;;;;;5011438;28;20029;-63
2021/09/21 04:30:42;;;;;;;4.20;3.58;;;12.40;76.30;;;;;;5012450;28;20540;-63
2021/09/21 04:33:07;;;;;;;4.63;3.78;;;12.40;76.40;;;;;;4996151;28;20173;-63
2021/09/21 04:35:33;;;;;;;4.93;3.90;;;12.40;76.50;;;;;;4995235;28;20524;-63
2021/09/21 04:37:59;;;;;;;4.97;3.90;;;12.40;76.50;;;;;;4995798;28;20528;-63
2021/09/21 04:40:25;;;;;;;3.92;3.50;;;12.40;76.50;;;;;;4995573;28;20107;-63
2021/09/21 04:42:50;;;;;;;4.35;3.88;;;12.40;76.50;;;;;;5011352;28;20026;-63
2021/09/21 04:45:16;;;;;;;4.28;3.88;;;12.40;76.40;;;;;;5016251;28;20440;-63
2021/09/21 04:47:41;;;;;;;4.55;4.10;;;12.50;76.30;;;;;;5016530;28;20377;-63
2021/09/21 04:50:08;;;;;;;4.50;4.07;;;12.50;76.30;;;;;;5016081;28;20057;-63
2021/09/21 04:52:33;;;;;;;4.30;3.50;;;12.50;76.20;;;;;;5004739;28;20187;-63
2021/09/21 04:54:59;;;;;;;4.13;3.67;;;12.50;75.80;;;;;;5006094;28;20121;-63
2021/09/21 04:57:25;;;;;;;3.85;3.38;;;12.60;75.80;;;;;;5011656;28;20029;-63
2021/09/21 04:59:50;;;;;;;3.65;3.25;;;12.60;75.70;;;;;;5008996;28;20037;-63
2021/09/21 05:02:16;;;;;;;4.40;3.58;;;12.70;75.80;;;;;;5013449;28;20053;-64
2021/09/21 05:04:41;;;;;;;4.05;3.58;;;12.70;75.70;;;;;;5015782;28;20025;-64
2021/09/21 05:07:07;;;;;;;3.60;3.05;;;12.70;75.50;;;;;;5002537;28;20030;-63
2021/09/21 05:09:33;;;;;;;3.30;3.00;;;12.70;75.10;;;;;;5010398;28;20105;-63
2021/09/21 05:11:58;;;;;;;4.32;3.63;;;12.70;74.80;;;;;;5015792;28;20026;-63
2021/09/21 05:14:24;;;;;;;3.42;2.95;;;12.60;74.90;;;;;;5011050;28;20046;-63
2021/09/21 05:16:50;;;;;;;3.65;3.35;;;12.60;74.90;;;;;;5008964;28;20027;-63
2021/09/21 05:19:16;;;;;;;3.72;3.30;;;12.50;74.70;;;;;;5011209;28;20030;-64
2021/09/21 05:21:42;;;;;;;3.22;2.92;;;12.50;74.70;;;;;;5014228;28;20018;-63
2021/09/21 05:24:08;;;;;;;3.65;3.05;;;12.40;74.60;;;;;;5014556;28;20034;-63
2021/09/21 05:26:34;;;;;;;3.50;3.00;;;12.40;74.40;;;;;;5011768;28;20037;-63
2021/09/21 05:29:01;;;;;;;3.10;2.75;;;12.30;75.00;;;;;;5009187;28;20025;-63
2021/09/21 05:31:26;;;;;;;4.22;2.88;;;12.30;74.70;;;;;;5012777;28;20505;-63
2021/09/21 05:33:52;;;;;;;3.60;3.10;;;12.30;75.30;;;;;;5016133;28;20030;-63
2021/09/21 05:36:18;;;;;;;4.35;3.00;;;12.20;74.60;;;;;;5010102;28;20489;-63
2021/09/21 05:38:43;;;;;;;3.13;2.83;;;12.20;74.80;;;;;;5010894;28;20042;-63
2021/09/21 05:41:09;;;;;;;4.00;2.83;;;12.30;75.00;;;;;;5011573;28;20156;-63
2021/09/21 05:43:35;;;;;;;3.40;2.85;;;12.30;74.90;;;;;;5009451;28;20503;-63
2021/09/21 05:46:00;;;;;;;3.80;3.30;;;12.30;75.00;;;;;;5006901;28;20038;-63
2021/09/21 05:48:26;;;;;;;2.67;2.47;;;12.40;75.00;;;;;;5016749;28;20389;-63
2021/09/21 05:50:52;;;;;;;3.20;2.90;;;12.40;74.70;;;;;;5021040;28;20034;-63
2021/09/21 05:53:17;;;;;;;3.10;2.70;;;12.50;74.60;;;;;;5009229;28;20034;-63
2021/09/21 05:55:43;;;;;;;3.42;3.13;;;12.50;74.80;;;;;;4997725;28;20894;-62
2021/09/21 05:58:10;;;;;;;3.17;2.88;;;12.60;74.60;;;;;;5004560;28;20029;-61
2021/09/21 06:00:36;;;;;;;3.67;2.97;;;12.60;74.00;;;;;;5003387;28;20033;-61
2021/09/21 06:03:03;;;;;;;3.63;3.33;;;12.60;74.10;;;;;;5002571;28;20049;-63
2021/09/21 06:05:28;;;;;;;3.05;2.72;;;12.50;74.10;;;;;;5004971;28;20026;-61
2021/09/21 06:07:54;;;;;;;3.83;2.90;;;12.50;73.90;;;;;;5009888;28;20889;-60
2021/09/21 06:10:21;;;;;;;3.53;3.08;;;12.50;73.90;;;;;;5013719;28;20088;-62
2021/09/21 06:12:48;;;;;;;4.45;2.90;;;12.50;73.90;;;;;;5016498;28;20034;-62
2021/09/21 06:15:14;;;;;;;3.00;2.67;;;12.40;74.20;;;;;;5010642;28;20561;-62
2021/09/21 06:17:41;;;;;;;3.33;3.03;;;12.50;74.40;;;;;;5009812;28;20031;-61
2021/09/21 06:20:11;;;;;;;3.25;2.72;;;12.50;74.40;;;;;;5009535;28;20034;-62
2021/09/21 06:22:38;;;;;;;3.05;2.70;;;12.60;74.30;;;;;;5012981;28;20033;-63
2021/09/21 06:25:06;;;;;;;4.47;2.97;;;12.70;74.00;;;;;;5006670;28;20065;-63
2021/09/21 06:27:32;;;;;;;3.17;2.65;;;12.70;73.70;;;;;;5003213;28;20109;-63
2021/09/21 06:29:58;;;;;;;2.42;2.22;;;12.80;73.60;;;;;;5005176;28;20464;-63
2021/09/21 06:32:24;;;;;;;3.03;2.72;;;12.80;73.30;;;;;;5005644;28;20036;-63
2021/09/21 06:34:50;;;;;;;2.70;2.30;;;12.80;73.30;;;;;;5003973;28;20037;-62
2021/09/21 06:37:16;;;;;;;2.78;2.58;;;12.80;73.10;;;;;;5010617;28;20017;-62
2021/09/21 06:39:41;;;;;;;3.50;2.70;;;12.90;73.00;;;;;;5003218;28;20654;-63
2021/09/21 06:42:08;;;;;;;3.35;2.55;;;13.00;72.60;;;;;;5002002;28;20088;-63
2021/09/21 06:44:33;;;;;;;2.38;2.17;;;13.00;72.50;;;;;;5002212;28;20045;-62
2021/09/21 06:46:59;;;;;;;3.25;2.53;;;13.00;72.10;;;;;;5001806;28;20413;-61
2021/09/21 06:49:25;;;;;;;2.60;2.40;;;13.00;71.90;;;;;;5004151;28;20040;-62
2021/09/21 06:51:50;;;;;;;2.47;2.28;;;13.10;72.00;;;;;;5000884;28;20096;-61
2021/09/21 06:54:16;;;;;;;2.50;2.30;;;13.10;71.90;;;;;;5000693;28;20164;-62
2021/09/21 06:56:42;;;;;;;2.40;2.20;;;13.20;71.70;;;;;;4996212;28;20041;-61
2021/09/21 06:59:07;;;;;;;3.13;2.30;;;13.20;71.40;;;;;;5002187;28;20112;-62
2021/09/21 07:01:33;;;;;;;2.40;2.20;;;13.30;71.40;;;;;;5000252;28;20072;-62
2021/09/21 07:03:59;;;;;;;2.45;2.25;;;13.40;70.70;;;;;;5006920;28;20040;-62
2021/09/21 07:06:24;;;;;;;2.53;2.03;;;13.40;70.20;;;;;;5002042;28;20048;-62
2021/09/21 07:08:50;;;;;;;1.88;1.77;;;13.40;69.70;;;;;;5006449;28;20042;-62
2021/09/21 07:11:16;;;;;;;1.92;1.83;;;13.40;69.30;;;;;;5009895;28;21523;-60
2021/09/21 07:13:41;;;;;;;3.15;2.20;;;13.30;68.80;;;;;;5010615;28;20088;-62
2021/09/21 07:16:07;;;;;;;2.65;2.08;;;13.30;68.60;;;;;;5003359;28;20053;-61
2021/09/21 07:18:33;;;;;;;3.35;2.17;;;13.30;68.40;;;;;;5004953;28;20033;-60
2021/09/21 07:20:58;;;;;;;1.92;1.83;;;13.30;68.40;;;;;;5006681;28;20052;-61
2021/09/21 07:23:24;;;;;;;2.60;2.20;;;13.40;68.50;;;;;;5006121;28;20437;-61
2021/09/21 07:25:50;;;;;;;2.88;2.20;;;13.40;68.00;;;;;;5006579;28;20424;-60
2021/09/21 07:28:16;;;;;;;2.42;2.22;;;13.40;67.90;;;;;;5004258;28;20541;-61
2021/09/21 07:30:41;;;;;;;2.83;2.60;;;13.40;68.40;;;;;;5005377;28;20802;-61
2021/09/21 07:33:13;;;;;;;3.30;2.80;;;13.40;67.80;;;;;;5001286;28;20482;-62
2021/09/21 07:35:39;;;;;;;3.17;2.88;;;13.40;68.20;;;;;;4997828;28;20346;-61
2021/09/21 07:38:05;;;;;;;2.58;2.38;;;13.50;68.30;;;;;;5002639;28;20116;-62
2021/09/21 07:40:34;;;;;;;3.92;3.20;;;13.50;68.20;;;;;;4997698;28;20481;-62
2021/09/21 07:43:01;;;;;;;4.40;2.80;;;13.60;68.10;;;;;;5002230;28;20036;-62
2021/09/21 07:45:27;;;;;;;3.10;2.80;;;13.70;68.00;;;;;;4995922;28;20030;-61
2021/09/21 07:47:52;;;;;;;2.70;2.50;;;13.80;67.60;;;;;;5001244;28;20060;-64
2021/09/21 07:50:18;;;;;;;2.67;2.47;;;13.80;67.30;;;;;;4993936;28;20126;-64
2021/09/21 07:52:44;;;;;;;2.53;2.20;;;13.80;67.30;;;;;;4997107;28;20045;-62
2021/09/21 07:55:10;;;;;;;3.03;2.33;;;13.80;67.20;;;;;;4988891;28;20034;-63
2021/09/21 07:57:38;;;;;;;2.35;2.15;;;13.80;67.10;;;;;;4994819;28;20052;-60
2021/09/21 08:00:06;;;;;;;5.60;3.13;;;13.90;67.00;;;;;;4995111;28;20029;-63
2021/09/21 08:02:32;;;;;;;2.60;2.38;;;14.00;67.10;;;;;;5003092;28;20409;-62
2021/09/21 08:04:58;;;;;;;2.13;1.90;;;14.00;67.00;;;;;;4996277;28;20037;-62
2021/09/21 08:07:28;;;;;;;2.30;2.10;;;14.10;66.70;;;;;;5006054;28;20099;-63
2021/09/21 08:09:54;;;;;;;3.28;2.25;;;14.20;66.40;;;;;;5000852;28;20473;-62
2021/09/21 08:12:19;;;;;;;2.65;2.45;;;14.30;66.30;;;;;;5005199;28;20046;-62
2021/09/21 08:14:48;;;;;;;2.35;2.15;;;14.30;66.10;;;;;;4996618;28;20034;-60
2021/09/21 08:17:14;;;;;;;2.35;2.15;;;14.30;66.20;;;;;;4999562;28;20049;-61
2021/09/21 08:19:40;;;;;;;3.00;2.45;;;14.30;65.80;;;;;;4995505;28;20426;-60
2021/09/21 08:22:05;;;;;;;2.67;2.30;;;14.20;65.30;;;;;;4998628;28;20494;-60
2021/09/21 08:24:31;;;;;;;2.13;2.00;;;14.10;65.50;;;;;;5000610;28;20057;-61
2021/09/21 08:26:57;;;;;;;3.47;2.40;;;14.10;65.80;;;;;;5006989;28;20029;-61
2021/09/21 08:29:22;;;;;;;2.58;2.17;;;14.00;65.80;;;;;;5003983;28;20077;-62
2021/09/21 08:31:48;;;;;;;1.98;1.88;;;14.00;65.80;;;;;;5003063;28;20036;-61
2021/09/21 08:34:14;;;;;;;2.35;2.15;;;14.00;65.50;;;;;;4999567;28;20022;-61
2021/09/21 08:36:40;;;;;;;2.30;2.10;;;13.90;65.40;;;;;;4998879;28;20782;-64
2021/09/21 08:39:05;;;;;;;2.10;2.00;;;13.90;65.30;;;;;;5009881;28;20192;-63
2021/09/21 08:41:32;;;;;;;2.35;2.10;;;13.90;65.30;;;;;;5006951;28;20542;-62
2021/09/21 08:43:57;;;;;;;2.28;2.08;;;13.90;65.10;;;;;;4998068;28;20056;-64
2021/09/21 08:46:23;;;;;;;2.10;1.90;;;13.80;65.30;;;;;;4999902;28;20071;-63
2021/09/21 08:48:49;;;;;;;3.40;2.22;;;13.80;65.40;;;;;;5004684;28;20053;-62
2021/09/21 08:51:17;;;;;;;2.20;2.00;;;13.90;65.30;;;;;;5003914;28;20038;-63
2021/09/21 08:53:42;;;;;;;2.55;2.35;;;13.90;65.40;;;;;;5004618;28;20468;-61
2021/09/21 08:56:08;;;;;;;2.70;2.08;;;13.90;65.50;;;;;;5005631;28;20025;-64
2021/09/21 08:58:34;;;;;;;2.20;2.00;;;14.00;65.80;;;;;;5001832;28;20067;-63
2021/09/21 09:01:14;;;;;;;2.78;2.30;;;14.10;65.60;;;;;;4997315;28;20045;-63
2021/09/21 09:03:40;;;;;;;2.25;2.10;;;14.20;64.90;;;;;;5002138;28;20385;-63
2021/09/21 09:06:07;;;;;;;1.90;1.80;;;14.20;64.50;;;;;;5003114;28;20037;-63
2021/09/21 09:08:34;;;;;;;2.63;1.67;;;14.30;64.40;;;;;;5008087;28;20033;-62
2021/09/21 09:11:09;;;;;;;2.03;1.92;;;14.30;64.20;;;;;;4999152;28;20041;-64
2021/09/21 09:13:35;;;;;;;2.10;2.00;;;14.30;63.90;;;;;;5007381;28;20456;-63
2021/09/21 09:16:01;;;;;;;1.45;1.40;;;14.30;63.60;;;;;;5004106;28;20041;-62
2021/09/21 09:18:27;;;;;;;1.90;1.77;;;14.30;63.30;;;;;;5008655;28;20062;-61
2021/09/21 09:20:54;;;;;;;1.75;1.63;;;14.20;63.20;;;;;;5004069;28;20030;-62
2021/09/21 09:23:20;;;;;;;1.80;1.70;;;14.20;63.30;;;;;;5008282;28;20032;-64
2021/09/21 09:25:49;;;;;;;1.75;1.65;;;14.10;63.40;;;;;;5005996;28;20088;-63
2021/09/21 09:28:21;;;;;;;1.55;1.40;;;14.10;63.40;;;;;;5006203;28;20038;-63
2021/09/21 09:30:47;;;;;;;2.47;1.60;;;14.10;63.40;;;;;;5003627;28;20437;-62
2021/09/21 09:33:13;;;;;;;1.77;1.58;;;14.10;63.40;;;;;;5006045;28;20037;-61
2021/09/21 09:35:43;;;;;;;2.05;1.73;;;14.10;63.50;;;;;;5003866;28;20033;-60
2021/09/21 09:38:18;;;;;;;1.83;1.73;;;14.10;63.70;;;;;;5001335;28;23861;-62
2021/09/21 09:40:47;;;;;;;2.40;2.20;;;14.10;63.90;;;;;;5001401;28;20389;-62
2021/09/21 09:43:18;;;;;;;2.30;2.10;;;14.00;63.80;;;;;;5006257;28;20034;-63
2021/09/21 09:45:45;;;;;;;2.58;2.38;;;14.00;63.60;;;;;;5001331;28;20057;-62
2021/09/21 09:48:14;;;;;;;2.33;2.10;;;14.00;63.70;;;;;;5004363;28;20384;-62
2021/09/21 09:50:44;;;;;;;2.22;2.00;;;13.90;63.80;;;;;;5000334;28;20108;-63
2021/09/21 09:53:12;;;;;;;2.15;1.90;;;13.90;63.80;;;;;;5001291;28;20038;-62
2021/09/21 09:55:41;;;;;;;2.10;2.00;;;13.90;63.90;;;;;;4999366;28;20088;-62
2021/09/21 09:58:08;;;;;;;2.00;1.90;;;14.00;64.20;;;;;;4992980;28;20326;-62
2021/09/21 10:00:34;;;;;;;1.95;1.75;;;14.00;64.20;;;;;;4998645;28;20034;-62
2021/09/21 10:03:00;;;;;;;1.77;1.65;;;14.00;64.10;;;;;;4997273;28;20018;-61
2021/09/21 10:05:29;;;;;;;2.55;2.35;;;14.10;64.30;;;;;;5003571;28;21050;-60
2021/09/21 10:07:56;;;;;;;1.70;1.60;;;14.10;63.80;;;;;;4988440;28;20046;-61
2021/09/21 10:10:22;;;;;;;2.00;1.70;;;14.10;63.60;;;;;;5003293;28;20708;-61
2021/09/21 10:12:48;;;;;;;2.05;1.90;;;14.10;63.50;;;;;;4993746;28;20041;-61
2021/09/21 10:15:15;;;;;;;2.33;2.10;;;14.00;63.80;;;;;;4989471;28;20029;-61
2021/09/21 10:17:55;;;;;;;1.48;1.38;;;14.00;63.60;;;;;;4983724;28;20030;-61
2021/09/21 10:20:34;;;;;;;1.65;1.55;;;14.10;63.60;;;;;;4994762;28;20044;-61
2021/09/21 10:23:01;;;;;;;2.05;1.58;;;14.00;63.50;;;;;;4995470;28;20025;-60
2021/09/21 10:25:30;;;;;;;1.45;1.35;;;14.10;63.40;;;;;;4998458;28;20096;-61
2021/09/21 10:27:57;;;;;;;2.85;1.60;;;14.00;63.50;;;;;;5003119;28;20120;-60
2021/09/21 10:30:26;;;;;;;1.48;1.38;;;14.00;63.60;;;;;;4998494;28;20039;-60
2021/09/21 10:32:53;;;;;;;3.58;1.40;;;14.00;63.60;;;;;;4998486;28;20038;-60
2021/09/21 10:35:21;;;;;;;1.63;1.52;;;13.90;63.70;;;;;;4999138;28;20650;-61
2021/09/21 10:38:07;;;;;;;1.73;1.63;;;14.00;63.60;;;;;;5000670;28;20037;-61
2021/09/21 10:40:44;;;;;;;1.67;1.25;;;13.90;63.60;;;;;;5003298;28;20037;-61
2021/09/21 10:43:33;;;;;;;1.60;1.50;;;13.90;63.80;;;;;;5002482;28;20109;-60
2021/09/21 10:46:11;;;;;;;1.58;1.48;;;13.90;63.40;;;;;;5003693;28;20112;-61
2021/09/21 10:48:39;;;;;;;1.65;1.55;;;13.90;63.50;;;;;;4998399;28;20030;-61
2021/09/21 10:51:07;;;;;;;1.48;1.38;;;13.80;63.70;;;;;;4998264;28;20041;-61
2021/09/21 10:53:34;;;;;;;1.33;1.30;;;13.70;64.00;;;;;;5006381;28;20052;-61
2021/09/21 10:56:06;;;;;;;1.50;1.40;;;13.60;64.60;;;;;;5003864;28;20117;-63
2021/09/21 10:58:33;;;;;;;1.25;1.15;;;13.70;64.90;;;;;;4999585;28;20515;-61
2021/09/21 11:00:59;;;;;;;0.93;0.93;;;13.80;64.60;;;;;;4995584;28;20429;-63
2021/09/21 11:03:27;;;;;;;1.35;1.25;;;13.90;64.50;;;;;;4994519;28;20030;-63
2021/09/21 11:05:57;;;;;;;1.70;1.50;;;13.90;64.10;;;;;;5002475;28;20037;-62
2021/09/21 11:08:31;;;;;;;1.40;1.15;;;14.00;64.10;;;;;;5001067;28;20037;-62
2021/09/21 11:11:02;;;;;;;1.50;1.23;;;14.10;63.90;;;;;;5002944;28;20363;-61
2021/09/21 11:13:37;;;;;;;1.17;1.17;;;14.20;63.90;;;;;;5004472;28;20132;-60
2021/09/21 11:16:07;;;;;;;1.35;1.35;;;14.20;64.00;;;;;;4997494;28;20462;-62
2021/09/21 11:18:35;;;;;;;1.60;1.50;;;14.30;63.70;;;;;;4992545;28;20068;-61
2021/09/21 11:21:04;;;;;;;1.65;1.55;;;14.30;63.70;;;;;;4990238;28;21025;-61
2021/09/21 11:23:35;;;;;;;1.70;1.60;;;14.40;64.00;;;;;;4991202;28;20149;-63
2021/09/21 11:26:04;;;;;;;2.28;1.45;;;14.40;63.80;;;;;;4995402;28;20118;-61
2021/09/21 11:28:35;;;;;;;1.48;1.40;;;14.40;63.70;;;;;;4989630;28;20059;-62
2021/09/21 11:31:01;;;;;;;1.42;1.33;;;14.50;63.50;;;;;;4998557;28;20030;-61
2021/09/21 11:33:30;;;;;;;1.70;1.52;;;14.40;63.30;;;;;;4996257;28;21093;-63
2021/09/21 11:36:00;;;;;;;1.73;1.63;;;14.40;63.00;;;;;;4998175;28;20022;-62
2021/09/21 11:38:29;;;;;;;1.70;1.60;;;14.30;62.70;;;;;;5003279;28;20686;-62
2021/09/21 11:40:55;;;;;;;1.75;1.65;;;14.20;62.70;;;;;;5004635;28;20025;-61
2021/09/21 11:43:21;;;;;;;2.20;1.50;;;14.10;62.80;;;;;;4997311;28;20033;-63
2021/09/21 11:45:49;;;;;;;1.67;1.58;;;14.00;62.90;;;;;;4996668;28;20040;-62
2021/09/21 11:48:16;;;;;;;1.33;1.33;;;13.90;62.90;;;;;;4994048;28;20638;-62
2021/09/21 11:50:44;;;;;;;1.40;1.30;;;13.80;62.90;;;;;;4998187;28;20126;-62
2021/09/21 11:53:13;;;;;;;1.33;1.23;;;13.80;63.00;;;;;;5003902;28;20033;-62
2021/09/21 11:55:41;;;;;;;1.75;1.65;;;13.80;63.50;;;;;;4997393;28;20030;-62
2021/09/21 11:58:10;;;;;;;1.95;1.60;;;13.80;63.10;;;;;;5000957;28;20059;-62
2021/09/21 12:00:40;;;;;;;1.70;1.42;;;13.90;63.00;;;;;;4999307;28;20021;-63
2021/09/21 12:03:07;;;;;;;1.60;1.50;;;13.90;62.90;;;;;;4995883;28;20041;-62
2021/09/21 12:05:34;;;;;;;2.35;1.85;;;13.90;63.10;;;;;;4998369;28;20075;-62
2021/09/21 12:08:05;;;;;;;2.17;2.08;;;13.80;63.10;;;;;;5004017;28;20025;-62
2021/09/21 12:10:31;;;;;;;1.50;1.40;;;13.90;63.20;;;;;;5000662;28;20030;-62
2021/09/21 12:13:06;;;;;;;1.35;1.25;;;14.00;63.10;;;;;;5005674;28;20061;-62
2021/09/21 12:15:32;;;;;;;1.48;1.38;;;14.00;62.90;;;;;;4996866;28;20561;-61
2021/09/21 12:17:59;;;;;;;1.55;1.45;;;14.10;63.00;;;;;;4995502;28;20018;-63
2021/09/21 12:20:28;;;;;;;1.42;1.20;;;14.20;62.80;;;;;;4999712;28;20076;-63
2021/09/21 12:22:54;;;;;;;1.23;1.23;;;14.20;62.70;;;;;;4999251;28;20426;-62
2021/09/21 12:25:22;;;;;;;1.42;1.40;;;14.30;62.20;;;;;;4997601;28;20045;-62
2021/09/21 12:27:52;;;;;;;1.70;1.60;;;14.40;61.90;;;;;;4998867;28;20033;-62
2021/09/21 12:30:22;;;;;;;1.77;1.67;;;14.30;61.70;;;;;;4995555;28;20171;-63
2021/09/21 12:33:04;;;;;;;2.35;1.58;;;14.30;61.90;;;;;;4995260;28;20037;-62
2021/09/21 12:35:36;;;;;;;1.80;1.70;;;14.30;62.00;;;;;;4994488;28;20026;-63
2021/09/21 12:38:10;;;;;;;1.77;1.33;;;14.30;62.20;;;;;;4998526;28;20072;-62
2021/09/21 12:40:47;;;;;;;1.95;1.60;;;14.20;62.10;;;;;;4992583;28;20381;-62
2021/09/21 12:43:17;;;;;;;1.55;1.40;;;14.20;61.90;;;;;;5002454;28;20073;-63
2021/09/21 12:45:43;;;;;;;1.55;1.45;;;14.20;61.70;;;;;;4997683;28;20037;-63
2021/09/21 12:48:09;;;;;;;1.60;1.50;;;14.10;61.70;;;;;;4998098;28;20029;-61
2021/09/21 12:50:39;;;;;;;1.55;1.45;;;14.00;61.90;;;;;;4998322;28;20038;-63
2021/09/21 12:53:05;;;;;;;1.83;1.73;;;14.00;62.00;;;;;;4997803;28;20038;-63
2021/09/21 12:55:33;;;;;;;1.67;1.58;;;13.90;62.10;;;;;;5005327;28;20076;-63
2021/09/21 12:58:00;;;;;;;1.67;1.58;;;13.90;62.00;;;;;;4997759;28;20044;-63
2021/09/21 13:00:34;;;;;;;1.52;1.42;;;13.80;62.30;;;;;;4998108;28;20122;-61